Eastside, Louisiana
Current Conditions -  °F | °C
As of 1:53 PM on Friday 28 Nov 2014 (Local Time) from KMLU Reporting Station
Clear Clear  
Wind Chill: 61°   Ceiling: Unl
Heat Index: 61°   Visibility: 10mi
Dew Point: 32°   Wind: 12mph
Humidity: 34%   Direction: 190°S
Pressure: 30.25"   Gusts: NA
Location:  32.1631°N, 92.1971°W
Report Text: KMLU 281953Z 19010KT 10SM CLR 16/00 A3025 RMK AO2 SLP241 T01610000
Loading
Personal Weather Stations






























Interactive Weather Map New forecast layout! Learn more

10-Day Weather Forecast

Advertisements
Track Severe Weather on mobile